Time;durP1;ratioP1;P1;durP2;ratioP2;P2;SDS_P1;SDS_P2;PMS_P1;PMS_P2;Temp;Humidity;BMP_temperature;BMP_pressure;BME280_temperature;BME280_humidity;BME280_pressure;Samples;Min_cycle;Max_cycle;Signal;HPM_P1;HPM_P2
2022/01/27 00:02:46;;;;;;;63.97;24.20;;;3.60;99.90;;;;;;5213756;23;20486;-46
2022/01/27 00:05:21;;;;;;;55.17;23.20;;;3.70;99.90;;;;;;5195457;28;20442;-47
2022/01/27 00:08:10;;;;;;;54.30;24.60;;;3.60;99.90;;;;;;5203677;28;20434;-47
2022/01/27 00:10:55;;;;;;;60.93;24.37;;;3.60;99.90;;;;;;5200895;28;20821;-48
2022/01/27 00:13:31;;;;;;;61.83;25.20;;;3.50;99.90;;;;;;5197907;28;20435;-48
2022/01/27 00:16:13;;;;;;;52.33;24.23;;;3.60;99.90;;;;;;5166089;28;20977;-48
2022/01/27 00:18:47;;;;;;;73.97;26.27;;;3.50;99.90;;;;;;5185657;28;20434;-47
2022/01/27 00:21:22;;;;;;;49.47;23.00;;;3.50;99.90;;;;;;5186348;28;20466;-48
2022/01/27 00:23:53;;;;;;;57.13;24.23;;;3.50;99.90;;;;;;5195474;28;20434;-47
2022/01/27 00:26:24;;;;;;;61.57;23.47;;;3.50;99.90;;;;;;5190900;28;20509;-47
2022/01/27 00:28:55;;;;;;;47.17;22.30;;;3.50;99.90;;;;;;5198723;28;20531;-47
2022/01/27 00:31:25;;;;;;;57.53;22.30;;;3.50;99.90;;;;;;5165923;28;20450;-47
2022/01/27 00:33:56;;;;;;;51.83;22.40;;;3.40;99.90;;;;;;5189588;28;20263;-48
2022/01/27 00:36:29;;;;;;;46.50;21.23;;;3.40;99.90;;;;;;5204084;28;20179;-47
2022/01/27 00:39:00;;;;;;;47.27;22.40;;;3.40;99.90;;;;;;5202879;28;20191;-48
2022/01/27 00:41:30;;;;;;;54.90;22.87;;;3.40;99.90;;;;;;5182067;28;20454;-47
2022/01/27 00:44:02;;;;;;;45.53;21.70;;;3.50;99.90;;;;;;5200771;28;20639;-46
2022/01/27 00:46:36;;;;;;;42.70;22.13;;;3.50;99.90;;;;;;5181931;28;20651;-47
2022/01/27 00:49:06;;;;;;;57.13;21.97;;;3.50;99.90;;;;;;5200995;28;20445;-46
2022/01/27 00:51:39;;;;;;;45.30;22.20;;;3.50;99.90;;;;;;5197750;28;20454;-47
2022/01/27 00:54:28;;;;;;;45.07;19.70;;;3.50;99.90;;;;;;5185070;28;20667;-47
2022/01/27 00:57:27;;;;;;;46.03;20.00;;;3.60;99.90;;;;;;5177291;28;20915;-47
2022/01/27 01:00:01;;;;;;;41.97;19.60;;;3.60;99.90;;;;;;5195177;28;20474;-47
2022/01/27 01:05:24;;;;;;;41.60;19.60;;;3.60;99.90;;;;;;5196916;28;20822;-47
2022/01/27 01:08:00;;;;;;;49.27;19.37;;;3.60;99.90;;;;;;5196803;28;20715;-46
2022/01/27 01:15:51;;;;;;;45.07;20.37;;;3.60;99.90;;;;;;5202087;28;20195;-47
2022/01/27 01:18:46;;;;;;;48.00;20.07;;;3.70;99.90;;;;;;5204193;28;20784;-46
2022/01/27 01:21:53;;;;;;;36.73;17.23;;;3.60;99.90;;;;;;5187838;28;20468;-46
2022/01/27 01:35:15;;;;;;;38.43;19.57;;;3.60;99.90;;;;;;5202257;28;20560;-47
2022/01/27 01:37:48;;;;;;;33.87;18.13;;;3.60;99.90;;;;;;5194353;28;20811;-48
2022/01/27 01:40:18;;;;;;;39.80;17.77;;;3.60;99.90;;;;;;5206182;28;20493;-47
2022/01/27 01:42:49;;;;;;;37.57;17.27;;;3.60;99.90;;;;;;5203850;28;20480;-48
2022/01/27 01:45:21;;;;;;;36.93;17.53;;;3.60;99.90;;;;;;5176590;28;20539;-47
2022/01/27 01:47:51;;;;;;;35.13;17.43;;;3.70;99.90;;;;;;5188744;28;20438;-47
2022/01/27 01:50:22;;;;;;;30.43;15.17;;;3.70;99.90;;;;;;5200161;28;20812;-48
2022/01/27 01:52:53;;;;;;;38.00;16.60;;;3.70;99.90;;;;;;5202159;28;20215;-47
2022/01/27 01:55:23;;;;;;;34.13;16.60;;;3.60;99.90;;;;;;5185158;28;20199;-46
2022/01/27 01:57:57;;;;;;;45.50;16.07;;;3.70;99.90;;;;;;5197246;28;20474;-47
2022/01/27 02:00:32;;;;;;;30.30;16.33;;;3.80;99.90;;;;;;5188374;28;20597;-47
2022/01/27 02:03:05;;;;;;;37.00;18.10;;;3.90;99.90;;;;;;5204564;28;20512;-47
2022/01/27 02:05:42;;;;;;;27.87;15.43;;;3.80;99.90;;;;;;5165708;28;20503;-47
2022/01/27 02:19:21;;;;;;;29.70;15.20;;;3.90;99.90;;;;;;5202352;28;20449;-47
2022/01/27 02:21:53;;;;;;;29.73;15.37;;;4.00;99.90;;;;;;5200446;28;20541;-46
2022/01/27 02:24:26;;;;;;;25.60;14.07;;;4.00;99.90;;;;;;5202314;28;20438;-47
2022/01/27 02:26:58;;;;;;;28.67;15.50;;;3.90;99.90;;;;;;5173656;28;20445;-48
2022/01/27 02:29:29;;;;;;;31.13;14.60;;;3.90;99.90;;;;;;5182710;28;20533;-47
2022/01/27 02:32:00;;;;;;;27.03;14.10;;;3.90;99.90;;;;;;5197532;28;20538;-47
2022/01/27 02:34:31;;;;;;;27.57;15.30;;;3.90;99.90;;;;;;5198457;28;21098;-46
2022/01/27 02:37:02;;;;;;;26.70;13.97;;;3.90;99.90;;;;;;5171713;28;20432;-48
2022/01/27 02:39:32;;;;;;;23.80;13.30;;;3.90;99.90;;;;;;5185970;28;20234;-47
2022/01/27 02:42:26;;;;;;;33.63;16.00;;;3.90;99.90;;;;;;5199506;28;20324;-47
2022/01/27 02:45:10;;;;;;;27.27;14.17;;;3.90;99.90;;;;;;5185943;28;20207;-47
2022/01/27 02:47:42;;;;;;;30.03;15.93;;;3.90;99.90;;;;;;5201481;28;20430;-46
2022/01/27 02:50:12;;;;;;;22.93;13.47;;;3.90;99.90;;;;;;5196423;28;20431;-47
2022/01/27 02:52:43;;;;;;;26.13;15.13;;;4.00;99.90;;;;;;5199224;28;20442;-47
2022/01/27 02:55:14;;;;;;;22.73;13.60;;;4.00;99.90;;;;;;5206019;28;20184;-46
2022/01/27 02:57:44;;;;;;;28.13;15.47;;;4.00;99.90;;;;;;5201060;28;20258;-46
2022/01/27 03:00:16;;;;;;;30.00;15.20;;;4.00;99.90;;;;;;5203102;28;20208;-48
2022/01/27 03:02:49;;;;;;;27.13;14.10;;;4.00;99.90;;;;;;5204005;28;20753;-47
2022/01/27 03:05:20;;;;;;;25.77;14.03;;;4.00;99.90;;;;;;5202784;28;20461;-47
2022/01/27 03:07:50;;;;;;;25.97;15.20;;;4.00;99.90;;;;;;5197381;28;20443;-46
2022/01/27 03:10:26;;;;;;;31.53;15.80;;;4.00;99.90;;;;;;5203041;28;20203;-47
2022/01/27 03:13:00;;;;;;;28.73;15.90;;;4.00;99.90;;;;;;5199897;28;20436;-47
2022/01/27 03:15:31;;;;;;;20.13;13.63;;;3.90;99.90;;;;;;5169017;28;20530;-48
2022/01/27 03:18:01;;;;;;;23.80;14.77;;;4.00;99.90;;;;;;5180244;28;20535;-47
2022/01/27 03:20:33;;;;;;;24.13;13.57;;;4.10;99.90;;;;;;5203471;28;20633;-46
2022/01/27 03:23:05;;;;;;;27.17;14.27;;;4.00;99.90;;;;;;5186337;28;20213;-46
2022/01/27 03:25:36;;;;;;;33.20;15.80;;;4.00;99.90;;;;;;5204242;28;20438;-48
2022/01/27 03:28:09;;;;;;;25.37;13.87;;;4.10;99.90;;;;;;5201591;28;20431;-47
2022/01/27 03:30:40;;;;;;;22.37;13.40;;;4.10;99.90;;;;;;5203525;28;20716;-48
2022/01/27 03:33:10;;;;;;;30.40;14.33;;;4.10;99.90;;;;;;5186835;28;20426;-46
2022/01/27 03:35:44;;;;;;;25.50;13.63;;;4.20;99.90;;;;;;5200271;28;20580;-47
2022/01/27 03:38:15;;;;;;;25.57;14.40;;;4.10;99.90;;;;;;5170764;28;20195;-47
2022/01/27 03:40:45;;;;;;;20.80;14.13;;;4.00;99.90;;;;;;5183786;28;20451;-47
2022/01/27 03:43:16;;;;;;;25.60;15.00;;;4.20;99.90;;;;;;5194346;28;20680;-48
2022/01/27 03:45:46;;;;;;;22.33;13.20;;;4.20;99.90;;;;;;5200804;28;20185;-47
2022/01/27 03:48:17;;;;;;;25.70;14.07;;;4.20;99.90;;;;;;5200707;28;20698;-47
2022/01/27 03:50:48;;;;;;;19.67;13.70;;;4.10;99.90;;;;;;5181889;28;20239;-47
2022/01/27 03:53:18;;;;;;;25.00;13.23;;;4.00;99.90;;;;;;5195775;28;20272;-49
2022/01/27 03:55:50;;;;;;;22.20;12.40;;;4.10;99.90;;;;;;5203434;28;20446;-48
2022/01/27 03:58:20;;;;;;;27.70;13.20;;;4.20;99.90;;;;;;5186465;28;20659;-47
2022/01/27 04:00:51;;;;;;;22.90;14.07;;;4.10;99.90;;;;;;5186998;28;20474;-46
2022/01/27 04:03:28;;;;;;;21.53;12.93;;;4.10;99.90;;;;;;5199557;28;20208;-48
2022/01/27 04:06:05;;;;;;;21.23;14.07;;;4.10;99.90;;;;;;5198753;28;20183;-48
2022/01/27 04:08:38;;;;;;;22.70;12.97;;;4.10;99.90;;;;;;5183537;28;20513;-47
2022/01/27 04:11:10;;;;;;;23.17;13.30;;;4.10;99.90;;;;;;5195501;28;20842;-47
2022/01/27 04:13:40;;;;;;;21.83;12.50;;;4.10;99.90;;;;;;5194423;28;20422;-47
2022/01/27 04:16:11;;;;;;;27.50;13.40;;;4.10;99.90;;;;;;5186029;28;20770;-47
2022/01/27 04:18:41;;;;;;;22.27;12.87;;;4.10;99.90;;;;;;5181158;28;20182;-47
2022/01/27 04:21:13;;;;;;;22.83;12.20;;;4.10;99.90;;;;;;5186197;28;20275;-47
2022/01/27 04:23:43;;;;;;;31.90;13.50;;;4.10;99.90;;;;;;5167449;28;20239;-47
2022/01/27 04:26:17;;;;;;;24.23;12.47;;;4.30;99.90;;;;;;5191343;28;20464;-46
2022/01/27 04:28:50;;;;;;;21.67;12.73;;;4.10;99.90;;;;;;5178174;28;20656;-47
2022/01/27 04:31:23;;;;;;;21.10;12.57;;;4.10;99.90;;;;;;5200059;28;20494;-47
2022/01/27 04:33:54;;;;;;;17.50;10.70;;;4.30;99.90;;;;;;5194154;28;20466;-47
2022/01/27 04:36:31;;;;;;;31.97;12.40;;;4.30;99.90;;;;;;5183659;28;20477;-46
2022/01/27 04:46:51;;;;;;;21.03;10.63;;;4.30;99.90;;;;;;5206083;28;20943;-47
2022/01/27 04:49:21;;;;;;;19.77;11.57;;;4.30;99.90;;;;;;5198195;28;20451;-47
2022/01/27 04:51:52;;;;;;;13.97;9.90;;;4.30;99.90;;;;;;5187818;28;20458;-48
2022/01/27 04:54:52;;;;;;;16.93;10.80;;;4.40;99.90;;;;;;5206739;28;20526;-47
2022/01/27 04:57:23;;;;;;;15.47;10.27;;;4.30;99.90;;;;;;5190496;28;20188;-47
2022/01/27 04:59:53;;;;;;;13.67;9.57;;;4.30;99.90;;;;;;5187097;28;20464;-47
2022/01/27 05:02:35;;;;;;;20.33;11.13;;;4.30;99.90;;;;;;5207029;28;20510;-47
2022/01/27 05:05:06;;;;;;;16.37;9.37;;;4.30;99.90;;;;;;5191513;28;20180;-47
2022/01/27 05:07:38;;;;;;;15.60;9.40;;;4.30;99.90;;;;;;5204667;28;20438;-46
2022/01/27 05:10:15;;;;;;;12.47;9.17;;;4.30;99.90;;;;;;5203143;28;20431;-47
2022/01/27 05:12:49;;;;;;;15.97;10.03;;;4.30;99.90;;;;;;5189979;28;20462;-47
2022/01/27 05:15:21;;;;;;;16.73;9.17;;;4.30;99.90;;;;;;5193981;28;20779;-47
2022/01/27 05:17:52;;;;;;;15.70;9.00;;;4.30;99.90;;;;;;5201877;28;20431;-47
2022/01/27 05:20:22;;;;;;;16.03;9.10;;;4.30;99.90;;;;;;5190130;28;20434;-47
2022/01/27 05:22:53;;;;;;;9.00;7.87;;;4.30;99.90;;;;;;5203642;28;20209;-48
2022/01/27 05:25:24;;;;;;;15.00;9.27;;;4.40;99.90;;;;;;5202922;28;20191;-47
2022/01/27 05:27:54;;;;;;;15.37;9.00;;;4.40;99.90;;;;;;5189189;28;20276;-47
2022/01/27 05:30:25;;;;;;;10.33;8.07;;;4.40;99.90;;;;;;5189418;28;20241;-47
2022/01/27 05:32:56;;;;;;;18.00;7.40;;;4.40;99.90;;;;;;5202215;28;20185;-47
2022/01/27 05:35:26;;;;;;;8.70;7.10;;;4.30;99.90;;;;;;5206509;28;20264;-48
2022/01/27 05:37:57;;;;;;;10.10;7.77;;;4.30;99.90;;;;;;5186471;28;20188;-48
2022/01/27 05:40:28;;;;;;;9.77;7.80;;;4.30;99.90;;;;;;5179734;28;20456;-48
2022/01/27 05:42:59;;;;;;;12.97;7.97;;;4.30;99.90;;;;;;5202070;28;20209;-47
2022/01/27 05:45:29;;;;;;;12.43;7.93;;;4.40;99.90;;;;;;5203543;28;20451;-47
2022/01/27 05:48:00;;;;;;;14.03;8.27;;;4.30;99.90;;;;;;5204307;28;20196;-48
2022/01/27 05:50:31;;;;;;;12.53;8.53;;;4.40;99.90;;;;;;5176621;28;21056;-48
2022/01/27 05:53:02;;;;;;;11.67;8.50;;;4.30;99.90;;;;;;5188426;28;20180;-48
2022/01/27 05:55:32;;;;;;;13.23;9.13;;;4.40;99.90;;;;;;5168887;28;20981;-48
2022/01/27 05:58:04;;;;;;;10.97;8.30;;;4.40;99.90;;;;;;5200464;28;20236;-47
2022/01/27 06:00:35;;;;;;;18.67;9.50;;;4.40;99.90;;;;;;5193033;28;20309;-48
2022/01/27 06:03:08;;;;;;;12.73;9.73;;;4.30;99.90;;;;;;5187815;28;21608;-48
2022/01/27 06:05:39;;;;;;;16.67;10.20;;;4.30;99.90;;;;;;5180493;28;20555;-48
2022/01/27 06:08:09;;;;;;;13.23;9.77;;;4.40;99.90;;;;;;5181040;28;20438;-47
2022/01/27 06:10:40;;;;;;;14.40;10.50;;;4.40;99.90;;;;;;5185573;28;20195;-49
2022/01/27 06:13:10;;;;;;;15.13;10.90;;;4.40;99.90;;;;;;5182367;28;20272;-47
2022/01/27 06:15:41;;;;;;;20.10;12.37;;;4.20;99.90;;;;;;5191247;28;20538;-47
2022/01/27 06:18:12;;;;;;;20.23;11.40;;;4.30;99.90;;;;;;5185369;28;20927;-48
2022/01/27 06:20:44;;;;;;;18.10;12.47;;;4.20;99.90;;;;;;5196686;28;20228;-48
2022/01/27 06:23:15;;;;;;;17.63;11.70;;;4.10;99.90;;;;;;5196167;28;20220;-47
2022/01/27 06:25:46;;;;;;;22.27;13.13;;;4.10;99.90;;;;;;5183555;28;20439;-48
2022/01/27 06:28:16;;;;;;;18.60;11.27;;;4.10;99.90;;;;;;5190989;28;20191;-48
2022/01/27 06:30:47;;;;;;;21.00;12.80;;;4.20;99.90;;;;;;5197117;28;20264;-46
2022/01/27 06:33:17;;;;;;;18.77;12.03;;;4.10;99.90;;;;;;5187967;28;20192;-46
2022/01/27 06:35:48;;;;;;;23.30;14.60;;;4.10;99.90;;;;;;5190257;28;20213;-46
2022/01/27 06:38:19;;;;;;;19.43;12.77;;;4.20;99.90;;;;;;5178834;28;20184;-47
2022/01/27 06:40:50;;;;;;;18.70;12.80;;;4.20;99.90;;;;;;5202122;28;20917;-47
2022/01/27 06:43:20;;;;;;;20.80;12.80;;;4.20;99.90;;;;;;5202524;28;20680;-46
2022/01/27 06:45:51;;;;;;;26.30;12.47;;;4.20;99.90;;;;;;5200769;28;20178;-47
2022/01/27 06:48:21;;;;;;;25.17;14.60;;;4.30;99.90;;;;;;5185293;28;20179;-47
2022/01/27 06:50:54;;;;;;;20.00;13.43;;;4.20;99.90;;;;;;5191930;28;20244;-47
2022/01/27 06:53:25;;;;;;;23.93;13.43;;;4.30;99.90;;;;;;5193223;28;20179;-48
2022/01/27 06:55:56;;;;;;;23.80;15.73;;;4.30;99.90;;;;;;5179808;28;20433;-47
2022/01/27 06:58:26;;;;;;;25.30;15.80;;;4.30;99.90;;;;;;5197061;28;20318;-50
2022/01/27 07:00:57;;;;;;;25.13;14.83;;;4.20;99.90;;;;;;5196520;28;20228;-50
2022/01/27 07:03:27;;;;;;;29.03;16.03;;;4.20;99.90;;;;;;5198543;28;20662;-48
2022/01/27 07:05:58;;;;;;;23.70;15.20;;;4.20;99.90;;;;;;5185382;28;20185;-47
2022/01/27 07:08:28;;;;;;;24.73;15.47;;;4.10;99.90;;;;;;5185088;28;20532;-50
2022/01/27 07:10:59;;;;;;;30.63;16.63;;;4.20;99.90;;;;;;5185023;28;20203;-49
2022/01/27 07:13:29;;;;;;;27.87;16.47;;;4.20;99.90;;;;;;5183263;28;20200;-48
2022/01/27 07:16:00;;;;;;;28.80;18.10;;;4.30;99.90;;;;;;5180072;28;20294;-47
2022/01/27 07:18:34;;;;;;;33.87;17.07;;;4.30;99.90;;;;;;5195866;28;20554;-48
2022/01/27 07:21:07;;;;;;;39.07;18.40;;;4.30;99.90;;;;;;5183141;28;20208;-47
2022/01/27 07:23:38;;;;;;;29.77;18.80;;;4.30;99.90;;;;;;5190780;28;20494;-48
2022/01/27 07:26:09;;;;;;;31.97;19.80;;;4.30;99.90;;;;;;5181948;28;20581;-47
2022/01/27 07:28:41;;;;;;;37.10;19.20;;;4.30;99.90;;;;;;5185414;28;20289;-47
2022/01/27 07:31:12;;;;;;;35.30;21.30;;;4.30;99.90;;;;;;5171496;28;20455;-47
2022/01/27 07:33:42;;;;;;;39.03;22.03;;;4.20;99.90;;;;;;5189892;28;20427;-47
2022/01/27 07:36:15;;;;;;;40.27;22.83;;;4.20;99.90;;;;;;5198453;28;20450;-47
2022/01/27 07:38:47;;;;;;;32.30;20.80;;;4.20;99.90;;;;;;5185750;28;20214;-48
2022/01/27 07:41:18;;;;;;;43.10;21.00;;;4.20;99.90;;;;;;5198456;28;20455;-47
2022/01/27 07:43:48;;;;;;;39.97;22.63;;;4.20;99.90;;;;;;5198018;28;20812;-47
2022/01/27 07:46:19;;;;;;;40.20;22.00;;;4.20;99.90;;;;;;5197058;28;20183;-47
2022/01/27 07:48:49;;;;;;;48.03;24.27;;;4.20;99.90;;;;;;5198614;28;20188;-48
2022/01/27 07:51:20;;;;;;;47.67;24.83;;;4.10;99.90;;;;;;5185235;28;20665;-48
2022/01/27 07:53:51;;;;;;;41.83;24.37;;;4.40;99.90;;;;;;5196537;28;20201;-47
2022/01/27 07:56:21;;;;;;;58.10;26.50;;;4.20;99.90;;;;;;5194460;28;20181;-48
2022/01/27 07:58:52;;;;;;;54.13;26.57;;;4.20;99.90;;;;;;5196864;28;20184;-47
2022/01/27 08:01:22;;;;;;;54.10;26.27;;;4.20;99.90;;;;;;5196336;28;20241;-47
2022/01/27 08:03:53;;;;;;;45.40;23.50;;;4.20;99.90;;;;;;5196933;28;20248;-47
2022/01/27 08:06:24;;;;;;;42.93;23.47;;;4.10;99.90;;;;;;5180892;28;20466;-48
2022/01/27 08:08:54;;;;;;;43.70;25.37;;;4.20;99.90;;;;;;5194650;28;20184;-47
2022/01/27 08:11:25;;;;;;;48.50;25.23;;;4.10;99.90;;;;;;5176916;28;20291;-48
2022/01/27 08:13:55;;;;;;;50.90;25.63;;;4.20;99.90;;;;;;5181169;28;20181;-48
2022/01/27 08:16:26;;;;;;;50.73;25.80;;;4.20;99.90;;;;;;5197494;28;20187;-47
2022/01/27 08:18:56;;;;;;;55.77;24.97;;;4.10;99.90;;;;;;5200001;28;20236;-47
2022/01/27 08:21:27;;;;;;;50.60;24.20;;;4.10;99.90;;;;;;5195091;28;20220;-48
2022/01/27 08:23:59;;;;;;;48.27;24.50;;;4.10;99.90;;;;;;5187716;28;20723;-48
2022/01/27 08:26:38;;;;;;;46.70;24.77;;;4.20;99.90;;;;;;5191289;28;20193;-48
2022/01/27 08:29:22;;;;;;;52.73;24.20;;;4.20;99.90;;;;;;5176704;28;20441;-47
2022/01/27 08:31:59;;;;;;;52.53;25.87;;;4.30;99.90;;;;;;5180664;28;20471;-49
2022/01/27 08:34:36;;;;;;;47.30;24.00;;;4.20;99.90;;;;;;5194060;28;20437;-48
2022/01/27 08:37:10;;;;;;;41.13;22.87;;;4.20;99.90;;;;;;5194346;28;20855;-47
2022/01/27 08:39:40;;;;;;;57.93;26.03;;;4.30;99.90;;;;;;5161762;28;20440;-48
2022/01/27 08:42:11;;;;;;;44.87;22.87;;;4.20;99.90;;;;;;5162803;28;20834;-47
2022/01/27 08:44:41;;;;;;;49.00;23.30;;;4.10;99.90;;;;;;5196646;28;20188;-48
2022/01/27 08:47:12;;;;;;;42.03;24.10;;;4.20;99.90;;;;;;5193185;28;20190;-46
2022/01/27 08:49:45;;;;;;;52.33;24.80;;;4.20;99.90;;;;;;5185518;28;20186;-47
2022/01/27 08:52:15;;;;;;;45.90;23.93;;;4.20;99.90;;;;;;5179687;28;21008;-48
2022/01/27 08:54:46;;;;;;;37.77;22.83;;;4.20;99.90;;;;;;5185221;28;20438;-47
2022/01/27 08:57:16;;;;;;;39.50;21.37;;;4.20;99.90;;;;;;5177208;28;20500;-47
2022/01/27 08:59:49;;;;;;;50.23;23.60;;;4.20;99.90;;;;;;5181097;28;20781;-50
2022/01/27 09:02:22;;;;;;;45.97;22.90;;;4.30;99.90;;;;;;5178446;28;20208;-48
2022/01/27 09:04:53;;;;;;;41.83;21.70;;;4.20;99.90;;;;;;5194381;28;20442;-48
2022/01/27 09:07:24;;;;;;;43.60;21.23;;;4.30;99.90;;;;;;5176381;28;20445;-47
2022/01/27 09:09:55;;;;;;;43.13;21.50;;;4.30;99.90;;;;;;5199775;28;20456;-48
2022/01/27 09:12:25;;;;;;;42.70;21.73;;;4.20;99.90;;;;;;5180842;28;20213;-47
2022/01/27 09:14:56;;;;;;;44.27;24.17;;;4.40;99.90;;;;;;5197246;28;20206;-48
2022/01/27 09:17:27;;;;;;;50.50;23.13;;;4.30;99.90;;;;;;5198774;28;20186;-48
2022/01/27 09:19:58;;;;;;;48.93;22.90;;;4.30;99.90;;;;;;5198534;28;20904;-48
2022/01/27 09:22:28;;;;;;;42.63;21.07;;;4.40;99.90;;;;;;5197725;28;20493;-49
2022/01/27 09:25:07;;;;;;;39.30;20.07;;;4.40;99.90;;;;;;5200534;28;20693;-49
2022/01/27 09:27:38;;;;;;;40.03;19.33;;;4.60;99.90;;;;;;5181600;28;20666;-48
2022/01/27 09:30:11;;;;;;;31.83;20.07;;;4.50;99.90;;;;;;5181445;28;20536;-48
2022/01/27 09:32:42;;;;;;;35.40;19.50;;;4.50;99.90;;;;;;5181871;28;20192;-48
2022/01/27 09:35:13;;;;;;;54.53;21.63;;;4.50;99.90;;;;;;5187834;28;20797;-47
2022/01/27 09:37:43;;;;;;;37.80;19.30;;;4.40;99.90;;;;;;5205366;28;20218;-48
2022/01/27 09:40:15;;;;;;;29.37;17.73;;;4.50;99.90;;;;;;5200635;28;20523;-48
2022/01/27 09:42:54;;;;;;;42.07;21.03;;;4.50;99.90;;;;;;5188738;28;20583;-47
2022/01/27 09:45:26;;;;;;;38.73;19.70;;;4.50;99.90;;;;;;5180094;28;20995;-48
2022/01/27 09:48:01;;;;;;;49.90;20.70;;;4.60;99.90;;;;;;5178380;28;20424;-47
2022/01/27 09:53:41;;;;;;;29.87;17.37;;;4.80;99.90;;;;;;5156484;28;20479;-48
2022/01/27 09:56:11;;;;;;;28.53;15.97;;;4.90;99.90;;;;;;5142651;28;20433;-48
2022/01/27 09:58:42;;;;;;;35.57;17.83;;;5.00;99.90;;;;;;5177266;28;20603;-49
2022/01/27 10:01:12;;;;;;;38.83;18.80;;;5.00;99.90;;;;;;5195843;28;20245;-49
2022/01/27 10:03:56;;;;;;;29.77;17.97;;;5.10;99.90;;;;;;5193480;28;20285;-48
2022/01/27 10:06:30;;;;;;;31.33;17.50;;;4.90;99.90;;;;;;5177792;28;20193;-48
2022/01/27 10:09:26;;;;;;;30.80;16.53;;;5.00;99.90;;;;;;5178223;28;20438;-48
2022/01/27 10:12:02;;;;;;;30.57;16.67;;;5.00;99.90;;;;;;5176061;28;20465;-48
2022/01/27 10:14:37;;;;;;;36.23;17.40;;;4.90;99.90;;;;;;5195793;28;20424;-48
2022/01/27 10:17:13;;;;;;;35.53;17.87;;;4.80;99.90;;;;;;5149348;28;20536;-49
2022/01/27 10:19:53;;;;;;;33.17;18.17;;;4.70;99.90;;;;;;5196581;28;20522;-49
2022/01/27 10:22:23;;;;;;;35.83;17.83;;;4.70;99.90;;;;;;5202078;28;20495;-48
2022/01/27 10:25:09;;;;;;;32.00;17.13;;;4.60;99.90;;;;;;5179811;28;20438;-47
2022/01/27 10:33:02;;;;;;;32.17;18.03;;;4.50;99.90;;;;;;5200112;28;20487;-48
2022/01/27 10:35:35;;;;;;;34.03;18.23;;;4.60;99.90;;;;;;5199974;28;20526;-48
2022/01/27 10:38:08;;;;;;;38.87;19.07;;;4.50;99.90;;;;;;5168130;28;20526;-49
2022/01/27 10:40:44;;;;;;;42.00;18.23;;;4.40;99.90;;;;;;5190944;28;20736;-48
2022/01/27 10:43:19;;;;;;;29.20;17.97;;;4.40;99.90;;;;;;5198040;28;20467;-49
2022/01/27 10:46:15;;;;;;;33.33;18.20;;;4.40;99.90;;;;;;5196414;28;20781;-50
2022/01/27 10:48:54;;;;;;;38.97;17.50;;;4.50;99.90;;;;;;5190796;28;20443;-47
2022/01/27 10:51:32;;;;;;;35.60;19.63;;;4.50;99.90;;;;;;5178609;28;20459;-49
2022/01/27 10:54:19;;;;;;;34.63;18.00;;;4.50;99.90;;;;;;5178397;28;20533;-49
2022/01/27 10:56:50;;;;;;;36.00;18.90;;;4.60;99.90;;;;;;5170625;28;20434;-49
2022/01/27 10:59:21;;;;;;;34.97;19.30;;;4.60;99.90;;;;;;5179599;28;20431;-49
2022/01/27 11:01:51;;;;;;;34.23;18.10;;;4.50;99.90;;;;;;5200215;28;20473;-49
2022/01/27 11:04:42;;;;;;;46.43;19.57;;;4.50;99.90;;;;;;5178024;28;20482;-48
2022/01/27 11:07:13;;;;;;;47.70;22.67;;;4.50;99.90;;;;;;5181296;28;20235;-49
2022/01/27 11:09:44;;;;;;;31.30;18.53;;;4.60;99.90;;;;;;5194071;28;20463;-48
2022/01/27 11:12:18;;;;;;;38.40;17.20;;;4.70;99.90;;;;;;5192527;28;20524;-50
2022/01/27 11:14:50;;;;;;;38.03;18.73;;;4.70;99.90;;;;;;5173616;28;20444;-51
2022/01/27 11:17:21;;;;;;;36.20;19.97;;;4.80;99.90;;;;;;5175897;28;20590;-49
2022/01/27 11:22:47;;;;;;;30.40;18.53;;;4.70;99.90;;;;;;5191133;28;20475;-49
2022/01/27 11:27:58;;;;;;;36.90;20.73;;;4.60;99.90;;;;;;5195465;28;20973;-47
2022/01/27 11:31:21;;;;;;;36.03;19.47;;;4.60;99.90;;;;;;5183031;28;20470;-49
2022/01/27 11:34:02;;;;;;;35.33;18.30;;;4.60;99.90;;;;;;5145332;28;20438;-49
2022/01/27 11:36:36;;;;;;;27.37;17.33;;;4.60;99.90;;;;;;5195911;28;20528;-47
2022/01/27 11:39:11;;;;;;;26.87;15.60;;;4.60;99.90;;;;;;5168976;28;22279;-48
2022/01/27 11:41:50;;;;;;;44.83;18.50;;;4.50;99.90;;;;;;5198739;28;20537;-48
2022/01/27 11:44:32;;;;;;;33.33;17.27;;;4.60;99.90;;;;;;5182577;28;20447;-49
2022/01/27 11:47:13;;;;;;;34.57;17.40;;;4.60;99.90;;;;;;5183840;28;20520;-49
2022/01/27 11:49:55;;;;;;;31.27;16.53;;;4.50;99.90;;;;;;5166746;28;20460;-48
2022/01/27 11:52:28;;;;;;;31.13;15.80;;;4.60;99.90;;;;;;5189290;28;20789;-48
2022/01/27 11:55:24;;;;;;;29.73;15.83;;;4.60;99.90;;;;;;5174057;28;20467;-49
2022/01/27 11:57:57;;;;;;;30.00;16.70;;;4.60;99.90;;;;;;5177282;28;20845;-48
2022/01/27 12:03:01;;;;;;;29.70;16.77;;;4.50;99.90;;;;;;5188364;28;20492;-50
2022/01/27 12:05:53;;;;;;;43.70;18.13;;;4.40;99.90;;;;;;5181506;28;20453;-51
2022/01/27 12:08:24;;;;;;;37.10;18.20;;;4.40;99.90;;;;;;5194490;28;20270;-50
2022/01/27 12:11:00;;;;;;;33.70;16.30;;;4.40;99.90;;;;;;5182607;28;20970;-50
2022/01/27 12:13:42;;;;;;;28.50;15.40;;;4.50;99.90;;;;;;5198095;28;20439;-51
2022/01/27 12:19:11;;;;;;;34.70;16.07;;;4.50;99.90;;;;;;5195245;28;20970;-49
2022/01/27 12:21:51;;;;;;;28.77;15.63;;;4.60;99.90;;;;;;5175926;28;20516;-51
2022/01/27 12:24:30;;;;;;;32.30;17.03;;;4.60;99.90;;;;;;5200773;28;20497;-50
2022/01/27 12:27:06;;;;;;;32.00;16.47;;;4.60;99.90;;;;;;5195719;28;20463;-51
2022/01/27 12:29:42;;;;;;;32.53;16.67;;;4.60;99.90;;;;;;5178883;28;20443;-51
2022/01/27 12:32:15;;;;;;;33.57;17.20;;;4.60;99.90;;;;;;5199087;28;20796;-51
2022/01/27 12:35:03;;;;;;;32.43;17.50;;;4.60;99.90;;;;;;5184711;28;20468;-50
2022/01/27 12:37:39;;;;;;;27.67;15.43;;;4.70;99.90;;;;;;5194803;28;20443;-50
2022/01/27 12:40:22;;;;;;;25.73;13.50;;;4.60;99.90;;;;;;5183307;28;20438;-51
2022/01/27 12:43:00;;;;;;;26.00;15.80;;;4.80;99.90;;;;;;5178355;28;20470;-50
2022/01/27 12:45:36;;;;;;;24.70;15.03;;;4.70;99.90;;;;;;5197949;28;20442;-50
2022/01/27 12:48:11;;;;;;;28.60;15.30;;;4.70;99.90;;;;;;5203880;28;20497;-50
2022/01/27 12:50:41;;;;;;;27.70;16.50;;;4.60;99.90;;;;;;5196552;28;20435;-49
2022/01/27 12:53:13;;;;;;;29.87;16.10;;;4.70;99.90;;;;;;5186817;28;20450;-51
2022/01/27 12:55:44;;;;;;;28.27;16.13;;;4.60;99.90;;;;;;5187408;28;20249;-48
2022/01/27 12:58:17;;;;;;;25.20;14.80;;;4.60;99.90;;;;;;5203036;28;20822;-51
2022/01/27 13:00:51;;;;;;;29.70;15.20;;;4.60;99.90;;;;;;5162275;28;20210;-51
2022/01/27 13:03:22;;;;;;;27.30;14.47;;;4.60;99.90;;;;;;5176534;28;20823;-51
2022/01/27 13:05:55;;;;;;;22.13;13.10;;;4.60;99.90;;;;;;5183366;28;21809;-50
2022/01/27 13:08:31;;;;;;;25.60;14.70;;;4.60;99.90;;;;;;5186612;28;20251;-50
2022/01/27 13:11:09;;;;;;;24.10;13.73;;;4.60;99.90;;;;;;5183674;28;20462;-51
2022/01/27 13:13:41;;;;;;;22.27;11.90;;;4.70;99.90;;;;;;5201671;28;20442;-51
2022/01/27 13:16:18;;;;;;;26.47;14.30;;;4.70;99.90;;;;;;5202668;28;20434;-50
2022/01/27 13:19:06;;;;;;;21.10;12.60;;;4.70;99.90;;;;;;5202059;28;20431;-51
2022/01/27 13:21:39;;;;;;;18.07;11.93;;;4.70;99.90;;;;;;5199539;28;20459;-51
2022/01/27 13:24:17;;;;;;;20.37;10.80;;;4.80;99.90;;;;;;5183808;28;20508;-51
2022/01/27 13:26:49;;;;;;;28.63;14.93;;;4.80;99.90;;;;;;5178513;28;20780;-50
2022/01/27 13:29:23;;;;;;;24.00;13.43;;;4.80;99.90;;;;;;5186737;28;20443;-49
2022/01/27 13:31:53;;;;;;;33.03;17.90;;;4.80;99.90;;;;;;5202711;28;20884;-49
2022/01/27 13:34:24;;;;;;;29.50;15.47;;;4.90;99.90;;;;;;5202317;28;20417;-49
2022/01/27 13:37:00;;;;;;;21.73;11.37;;;4.90;99.90;;;;;;5185313;28;20662;-51
2022/01/27 13:41:16;;;;;;;14.43;9.73;;;4.90;99.90;;;;;;5185460;28;20182;-51
2022/01/27 13:42:51;;;;;;;12.07;7.97;;;5.10;99.90;;;;;;5195140;28;20559;-50
2022/01/27 13:45:21;;;;;;;13.60;9.17;;;5.10;99.90;;;;;;5204955;28;20469;-50
2022/01/27 13:47:52;;;;;;;13.50;8.60;;;5.20;99.90;;;;;;5203888;28;20457;-50
2022/01/27 13:50:23;;;;;;;12.03;8.50;;;5.20;99.90;;;;;;5202047;28;20218;-51
2022/01/27 13:52:53;;;;;;;11.90;7.80;;;5.30;99.90;;;;;;5184404;28;20185;-49
2022/01/27 13:55:24;;;;;;;14.13;7.87;;;5.30;99.90;;;;;;5194663;28;20656;-49
2022/01/27 13:58:02;;;;;;;10.10;8.03;;;5.30;99.90;;;;;;5181754;28;20529;-51
2022/01/27 14:00:40;;;;;;;9.83;7.13;;;5.40;99.90;;;;;;5189835;28;20519;-51
2022/01/27 14:03:13;;;;;;;9.83;7.50;;;5.40;99.90;;;;;;5178523;28;21035;-51
2022/01/27 14:06:01;;;;;;;9.17;7.10;;;5.50;99.90;;;;;;5195830;28;20937;-50
2022/01/27 14:08:44;;;;;;;8.67;7.37;;;5.50;99.90;;;;;;5185269;28;21000;-50
2022/01/27 14:11:20;;;;;;;18.13;7.60;;;5.50;99.90;;;;;;5193924;28;20999;-51